createdAt,value
2017-11-13T00:01:07.012Z,25.43
2017-11-13T00:03:34.744Z,20.80
2017-11-13T00:06:03.205Z,25.67
2017-11-13T00:08:30.772Z,25.07
2017-11-13T00:10:58.340Z,25.60
2017-11-13T00:13:26.101Z,21.30
2017-11-13T00:15:53.598Z,26.17
2017-11-13T00:18:21.110Z,26.70
2017-11-13T00:20:48.615Z,27.50
2017-11-13T00:23:16.918Z,30.50
2017-11-13T00:25:46.328Z,28.77
2017-11-13T00:28:13.897Z,34.23
2017-11-13T00:30:41.680Z,32.53
2017-11-13T00:33:09.443Z,27.73
2017-11-13T00:35:36.945Z,29.50
2017-11-13T00:38:04.461Z,32.73
2017-11-13T00:40:31.966Z,32.60
2017-11-13T00:43:00.242Z,27.87
2017-11-13T00:45:27.941Z,32.67
2017-11-13T00:47:55.437Z,26.80
2017-11-13T00:50:23.058Z,27.20
2017-11-13T00:52:50.641Z,31.93
2017-11-13T00:55:18.173Z,27.43
2017-11-13T00:57:45.845Z,29.97
2017-11-13T01:00:13.342Z,28.33
2017-11-13T01:02:40.952Z,25.37
2017-11-13T01:05:08.526Z,23.70
2017-11-13T01:07:36.285Z,29.27
2017-11-13T01:10:03.819Z,23.30
2017-11-13T01:12:31.505Z,23.60
2017-11-13T01:14:59.055Z,24.60
2017-11-13T01:17:26.553Z,28.43
2017-11-13T01:19:54.789Z,24.63
2017-11-13T01:22:22.305Z,25.93
2017-11-13T01:24:49.790Z,25.30
2017-11-13T01:27:17.347Z,23.73
2017-11-13T01:29:44.934Z,29.83
2017-11-13T01:32:12.437Z,27.03
2017-11-13T01:34:40.359Z,31.80
2017-11-13T01:37:07.861Z,26.60
2017-11-13T01:39:35.361Z,27.27
2017-11-13T01:42:02.873Z,32.00
2017-11-13T01:44:30.366Z,27.20
2017-11-13T01:46:58.028Z,28.70
2017-11-13T01:49:25.817Z,25.87
2017-11-13T01:51:53.334Z,26.57
2017-11-13T01:54:20.826Z,27.40
2017-11-13T01:56:48.333Z,22.20
2017-11-13T01:59:16.599Z,25.00
2017-11-13T02:01:44.321Z,27.50
2017-11-13T02:04:11.825Z,21.47
2017-11-13T02:06:39.325Z,26.80
2017-11-13T02:09:06.824Z,25.43
2017-11-13T02:11:34.349Z,26.63
2017-11-13T02:14:02.025Z,26.23
2017-11-13T02:16:29.521Z,30.40
2017-11-13T02:18:57.783Z,30.57
2017-11-13T02:21:25.293Z,29.13
2017-11-13T02:23:52.802Z,29.50
2017-11-13T02:26:21.069Z,28.00
2017-11-13T02:28:48.587Z,26.30
2017-11-13T02:31:16.081Z,26.17
2017-11-13T02:33:44.289Z,26.37
2017-11-13T02:36:11.797Z,21.73
2017-11-13T02:38:39.303Z,22.60
2017-11-13T02:41:06.809Z,26.10
2017-11-13T02:43:34.330Z,28.07
2017-11-13T02:46:01.918Z,24.10
2017-11-13T02:48:29.435Z,22.07
2017-11-13T02:50:56.946Z,25.30
2017-11-13T02:53:24.453Z,20.90
2017-11-13T02:55:51.976Z,23.40
2017-11-13T02:58:19.484Z,19.47
2017-11-13T03:00:46.982Z,22.10
2017-11-13T03:03:14.730Z,26.30
2017-11-13T03:05:42.221Z,22.30
2017-11-13T03:08:09.724Z,15.33
2017-11-13T03:10:37.422Z,19.10
2017-11-13T03:13:05.174Z,17.53
2017-11-13T03:15:32.673Z,24.93
2017-11-13T03:18:00.195Z,17.07
2017-11-13T03:20:27.701Z,18.13
2017-11-13T03:22:55.297Z,20.33
2017-11-13T03:25:22.801Z,20.30
2017-11-13T03:27:50.478Z,18.00
2017-11-13T03:30:18.016Z,18.57
2017-11-13T03:32:45.701Z,23.33
2017-11-13T03:35:13.220Z,22.20
2017-11-13T03:37:42.333Z,18.13
2017-11-13T03:40:10.871Z,18.47
2017-11-13T03:42:38.373Z,26.23
2017-11-13T03:45:06.070Z,13.90
2017-11-13T03:47:33.576Z,24.83
2017-11-13T03:50:01.923Z,26.87
2017-11-13T03:52:29.430Z,16.07
2017-11-13T03:54:57.149Z,19.63
2017-11-13T03:57:24.653Z,14.90
2017-11-13T03:59:52.942Z,23.17
2017-11-13T04:02:20.442Z,16.17
2017-11-13T04:04:47.949Z,17.50
2017-11-13T04:07:15.457Z,15.33
2017-11-13T04:09:43.094Z,14.30
2017-11-13T04:12:10.591Z,15.87
2017-11-13T04:14:38.213Z,26.23
2017-11-13T04:17:05.837Z,16.83
2017-11-13T04:19:33.365Z,11.73
2017-11-13T04:22:00.859Z,12.27
2017-11-13T04:24:29.118Z,20.40
2017-11-13T04:26:56.840Z,14.73
2017-11-13T04:29:24.610Z,12.37
2017-11-13T04:31:52.617Z,18.37
2017-11-13T04:34:20.121Z,18.80
2017-11-13T04:36:47.620Z,18.43
2017-11-13T04:39:15.357Z,22.83
2017-11-13T04:41:42.862Z,23.40
2017-11-13T04:44:10.469Z,22.63
2017-11-13T04:46:37.989Z,13.30
2017-11-13T04:49:05.486Z,17.83
2017-11-13T04:51:32.995Z,18.50
2017-11-13T04:54:00.669Z,15.40
2017-11-13T04:56:28.873Z,25.13
2017-11-13T04:58:56.542Z,15.37
2017-11-13T05:01:24.053Z,13.67
2017-11-13T05:03:51.550Z,17.70
2017-11-13T05:06:19.057Z,12.27
2017-11-13T05:08:47.596Z,13.07
2017-11-13T05:11:15.365Z,16.77
2017-11-13T05:13:42.871Z,19.90
2017-11-13T05:16:10.356Z,19.20
2017-11-13T05:18:37.873Z,23.83
2017-11-13T05:21:06.197Z,13.43
2017-11-13T05:23:33.697Z,12.80
2017-11-13T05:26:01.212Z,18.73
2017-11-13T05:28:28.709Z,16.30
2017-11-13T05:30:56.218Z,12.20
2017-11-13T05:33:23.724Z,13.13
2017-11-13T05:35:51.232Z,13.57
2017-11-13T05:38:18.892Z,25.53
2017-11-13T05:40:46.381Z,20.50
2017-11-13T05:43:13.886Z,25.60
2017-11-13T05:45:41.576Z,15.90
2017-11-13T05:48:09.081Z,11.63
2017-11-13T05:50:36.578Z,17.03
2017-11-13T05:53:04.073Z,11.33
2017-11-13T05:55:31.577Z,17.07
2017-11-13T05:57:59.836Z,14.40
2017-11-13T06:00:27.517Z,8.93
2017-11-13T06:02:55.019Z,15.70
2017-11-13T06:05:22.509Z,10.27
2017-11-13T06:07:50.017Z,19.13
2017-11-13T06:10:17.656Z,9.40
2017-11-13T06:12:45.142Z,7.80
2017-11-13T06:15:12.636Z,10.17
2017-11-13T06:17:40.148Z,17.03
2017-11-13T06:20:07.644Z,18.97
2017-11-13T06:22:35.802Z,12.17
2017-11-13T06:25:03.297Z,13.83
2017-11-13T06:27:30.812Z,13.93
2017-11-13T06:29:58.309Z,15.20
2017-11-13T06:32:26.026Z,19.70
2017-11-13T06:34:53.524Z,13.87
2017-11-13T06:37:21.245Z,7.63
2017-11-13T06:39:49.161Z,10.33
2017-11-13T06:42:17.414Z,8.60
2017-11-13T06:44:45.013Z,14.23
2017-11-13T06:47:12.571Z,11.07
2017-11-13T06:49:40.063Z,14.27
2017-11-13T06:52:07.867Z,18.33
2017-11-13T06:54:35.589Z,8.40
2017-11-13T06:57:03.080Z,11.03
2017-11-13T06:59:31.637Z,12.93
2017-11-13T07:01:59.165Z,8.80
2017-11-13T07:04:26.657Z,12.87
2017-11-13T07:06:54.296Z,11.80
2017-11-13T07:09:21.865Z,15.07
2017-11-13T07:11:49.642Z,11.90
2017-11-13T07:14:18.046Z,8.90
2017-11-13T07:16:45.553Z,10.07
2017-11-13T07:19:13.226Z,11.03
2017-11-13T07:21:40.725Z,8.57
2017-11-13T07:24:08.218Z,17.10
2017-11-13T07:26:35.717Z,14.50
2017-11-13T07:29:03.226Z,13.10
2017-11-13T07:31:30.732Z,9.67
2017-11-13T07:33:58.220Z,14.23
2017-11-13T07:36:25.911Z,8.43
2017-11-13T07:38:53.389Z,10.87
2017-11-13T07:41:20.953Z,11.93
2017-11-13T07:43:48.446Z,9.53
2017-11-13T07:46:15.936Z,5.40
2017-11-13T07:48:43.719Z,10.07
2017-11-13T07:51:11.385Z,10.50
2017-11-13T07:53:38.886Z,16.30
2017-11-13T07:56:06.381Z,12.00
2017-11-13T07:58:33.873Z,8.97
2017-11-13T08:01:01.521Z,11.00
2017-11-13T08:03:29.018Z,7.50
2017-11-13T08:05:56.513Z,9.47
2017-11-13T08:08:24.808Z,9.90
2017-11-13T08:10:52.304Z,12.23
2017-11-13T08:13:19.813Z,6.93
2017-11-13T08:15:47.301Z,14.37
2017-11-13T08:18:14.797Z,7.00
2017-11-13T08:20:42.402Z,5.40
2017-11-13T08:23:10.162Z,14.97
2017-11-13T08:25:37.648Z,9.60
2017-11-13T08:28:05.426Z,14.10
2017-11-13T08:30:32.925Z,17.50
2017-11-13T08:33:00.414Z,10.40
2017-11-13T08:35:27.921Z,11.23
2017-11-13T08:37:55.413Z,16.93
2017-11-13T08:40:23.954Z,9.80
2017-11-13T08:42:51.621Z,5.43
2017-11-13T08:45:19.120Z,9.40
2017-11-13T08:47:46.626Z,7.37
2017-11-13T08:50:14.130Z,10.33
2017-11-13T08:52:41.730Z,13.07
2017-11-13T08:55:09.240Z,8.10
2017-11-13T08:57:37.195Z,7.33
2017-11-13T09:00:04.778Z,12.17
2017-11-13T09:02:32.274Z,12.63
2017-11-13T09:04:59.913Z,7.30
2017-11-13T09:07:27.792Z,8.17
2017-11-13T09:09:55.338Z,7.47
2017-11-13T09:12:22.847Z,12.00
2017-11-13T09:14:50.416Z,7.67
2017-11-13T09:17:17.913Z,4.63
2017-11-13T09:19:45.408Z,11.27
2017-11-13T09:22:12.919Z,5.73
2017-11-13T09:24:40.409Z,9.80
2017-11-13T09:27:08.680Z,10.10
2017-11-13T09:29:36.402Z,7.50
2017-11-13T09:32:03.909Z,3.83
2017-11-13T09:34:31.626Z,3.50
2017-11-13T09:36:59.127Z,4.80
2017-11-13T09:39:26.625Z,7.93
2017-11-13T09:41:54.317Z,2.93
2017-11-13T09:44:21.805Z,6.77
2017-11-13T09:46:49.320Z,2.30
2017-11-13T09:49:16.985Z,4.80
2017-11-13T09:51:44.489Z,4.53
2017-11-13T09:54:11.997Z,7.20
2017-11-13T09:56:39.516Z,9.10
2017-11-13T09:59:07.073Z,8.90
2017-11-13T10:01:34.576Z,7.13
2017-11-13T10:04:02.079Z,8.13
2017-11-13T10:06:29.590Z,7.40
2017-11-13T10:08:57.791Z,5.27
2017-11-13T10:11:25.315Z,4.83
2017-11-13T10:13:52.813Z,7.37
2017-11-13T10:16:20.335Z,8.43
2017-11-13T10:18:47.948Z,5.27
2017-11-13T10:21:15.445Z,4.57
2017-11-13T10:23:42.949Z,5.70
2017-11-13T10:26:10.845Z,6.40
2017-11-13T10:28:38.356Z,6.07
2017-11-13T10:31:05.860Z,10.30
2017-11-13T10:33:33.369Z,11.73
2017-11-13T10:36:00.883Z,14.07
2017-11-13T10:38:28.382Z,9.23
2017-11-13T10:40:56.018Z,2.30
2017-11-13T10:43:23.549Z,5.97
2017-11-13T10:45:51.046Z,5.20
2017-11-13T10:48:18.549Z,7.83
2017-11-13T10:50:46.103Z,5.67
2017-11-13T10:53:13.617Z,5.20
2017-11-13T10:55:41.114Z,2.40
2017-11-13T10:58:08.801Z,1.90
2017-11-13T11:00:36.345Z,2.53
2017-11-13T11:03:03.945Z,6.13
2017-11-13T11:05:31.442Z,3.00
2017-11-13T11:07:59.714Z,2.80
2017-11-13T11:10:27.977Z,8.03
2017-11-13T11:12:55.481Z,10.03
2017-11-13T11:15:23.926Z,1.53
2017-11-13T11:17:53.954Z,6.83
2017-11-13T11:20:31.765Z,1.83
2017-11-13T11:23:09.214Z,4.00
2017-11-13T11:25:37.260Z,8.20
2017-11-13T11:28:07.173Z,3.83
2017-11-13T11:30:40.272Z,4.43
2017-11-13T11:33:22.459Z,2.50
2017-11-13T11:35:52.815Z,2.40
2017-11-13T11:38:20.304Z,3.60
2017-11-13T11:40:53.447Z,21.10
2017-11-13T11:43:21.240Z,9.07
2017-11-13T11:45:48.739Z,8.10
2017-11-13T11:48:31.123Z,2.13
2017-11-13T11:50:58.621Z,1.40
2017-11-13T11:53:26.121Z,1.83
2017-11-13T11:55:54.397Z,2.37
2017-11-13T11:58:21.900Z,1.17
2017-11-13T12:00:49.421Z,4.00
2017-11-13T12:03:17.696Z,3.00
2017-11-13T12:05:45.204Z,5.20
2017-11-13T12:08:12.697Z,2.40
2017-11-13T12:10:40.968Z,9.30
2017-11-13T12:13:08.469Z,3.30
2017-11-13T12:15:35.973Z,3.47
2017-11-13T12:18:03.924Z,2.90
2017-11-13T12:20:31.685Z,5.33
2017-11-13T12:22:59.209Z,4.50
2017-11-13T12:25:26.895Z,5.03
2017-11-13T12:27:54.393Z,1.67
2017-11-13T12:30:21.934Z,1.87
2017-11-13T12:32:49.417Z,12.10
2017-11-13T12:35:17.691Z,3.67
2017-11-13T12:37:45.441Z,6.50
2017-11-13T12:40:12.938Z,3.97
2017-11-13T12:42:40.446Z,2.57
2017-11-13T12:45:08.090Z,4.43
2017-11-13T12:47:35.593Z,1.37
2017-11-13T12:50:03.189Z,4.50
2017-11-13T12:52:31.484Z,3.13
2017-11-13T12:54:58.986Z,2.30
2017-11-13T12:57:27.258Z,5.03
2017-11-13T12:59:54.754Z,1.83
2017-11-13T13:02:22.286Z,5.07
2017-11-13T13:04:50.550Z,5.83
2017-11-13T13:07:18.049Z,3.53
2017-11-13T13:09:45.545Z,1.47
2017-11-13T13:12:13.048Z,1.73
2017-11-13T13:14:40.643Z,3.77
2017-11-13T13:17:08.375Z,4.00
2017-11-13T13:19:35.873Z,1.10
2017-11-13T13:22:03.362Z,5.87
2017-11-13T13:24:30.871Z,4.37
2017-11-13T13:26:58.501Z,2.80
2017-11-13T13:29:26.004Z,1.90
2017-11-13T13:31:53.499Z,0.90
2017-11-13T13:34:21.818Z,3.43
2017-11-13T13:36:49.306Z,6.83
2017-11-13T13:39:16.821Z,1.80
2017-11-13T13:41:44.506Z,4.60
2017-11-13T13:44:12.001Z,5.90
2017-11-13T13:46:40.342Z,5.00
2017-11-13T13:49:07.842Z,6.80
2017-11-13T13:51:35.342Z,3.27
2017-11-13T13:54:02.875Z,2.30
2017-11-13T13:56:30.375Z,7.50
2017-11-13T13:58:57.871Z,4.10
2017-11-13T14:01:25.377Z,5.33
2017-11-13T14:03:52.873Z,2.53
2017-11-13T14:06:20.783Z,1.40
2017-11-13T14:08:48.285Z,10.77
2017-11-13T14:11:16.578Z,1.20
2017-11-13T14:13:44.078Z,2.40
2017-11-13T14:16:11.571Z,5.03
2017-11-13T14:18:39.097Z,2.77
2017-11-13T14:21:06.881Z,4.00
2017-11-13T14:23:34.372Z,4.03
2017-11-13T14:26:01.977Z,6.77
2017-11-13T14:28:30.352Z,2.57
2017-11-13T14:30:57.862Z,3.43
2017-11-13T14:33:25.389Z,13.20
2017-11-13T14:35:52.890Z,4.00
2017-11-13T14:38:20.493Z,1.90
2017-11-13T14:40:48.046Z,4.47
2017-11-13T14:43:15.661Z,4.67
2017-11-13T14:45:43.929Z,5.50
2017-11-13T14:48:11.421Z,1.77
2017-11-13T14:50:38.928Z,3.33
2017-11-13T14:53:06.424Z,2.73
2017-11-13T14:55:34.698Z,2.97
2017-11-13T14:58:02.975Z,2.27
2017-11-13T15:00:30.519Z,9.53
2017-11-13T15:02:58.205Z,2.83
2017-11-13T15:05:25.712Z,3.70
2017-11-13T15:07:53.207Z,1.37
2017-11-13T15:10:20.737Z,7.77
2017-11-13T15:12:48.237Z,7.80
2017-11-13T15:15:15.738Z,11.80
2017-11-13T15:17:43.237Z,9.80
2017-11-13T15:20:10.765Z,9.70
2017-11-13T15:22:38.283Z,8.87
2017-11-13T15:25:05.973Z,4.80
2017-11-13T15:27:33.489Z,12.27
2017-11-13T15:30:00.972Z,6.70
2017-11-13T15:32:28.622Z,10.23
2017-11-13T15:34:56.119Z,4.17
2017-11-13T15:37:23.616Z,3.47
2017-11-13T15:39:51.114Z,3.03
2017-11-13T15:42:18.633Z,7.60
2017-11-13T15:44:46.538Z,9.40
2017-11-13T15:47:14.313Z,8.20
2017-11-13T15:49:42.065Z,15.57
2017-11-13T15:52:09.570Z,9.63
2017-11-13T15:54:37.066Z,4.93
2017-11-13T15:57:04.569Z,7.83
2017-11-13T15:59:32.200Z,12.73
2017-11-13T16:01:59.961Z,11.63
2017-11-13T16:04:28.215Z,2.10
2017-11-13T16:06:55.761Z,3.70
2017-11-13T16:09:23.260Z,2.30
2017-11-13T16:11:50.789Z,3.63
2017-11-13T16:14:18.313Z,6.70
2017-11-13T16:16:46.568Z,4.60
2017-11-13T16:19:14.308Z,1.73
2017-11-13T16:21:41.810Z,11.20
2017-11-13T16:24:09.744Z,8.10
2017-11-13T16:26:37.244Z,5.73
2017-11-13T16:29:04.744Z,5.70
2017-11-13T16:31:32.279Z,4.47
2017-11-13T16:33:59.750Z,5.37
2017-11-13T16:36:27.237Z,3.50
2017-11-13T16:38:54.737Z,4.77
2017-11-13T16:41:22.233Z,4.33
2017-11-13T16:43:49.753Z,3.40
2017-11-13T16:46:17.255Z,5.53
2017-11-13T16:48:44.748Z,2.70
2017-11-13T16:51:12.469Z,5.40
2017-11-13T16:53:40.229Z,6.60
2017-11-13T16:56:07.727Z,6.40
2017-11-13T16:58:35.269Z,5.07
2017-11-13T17:01:02.745Z,5.27
2017-11-13T17:03:31.059Z,7.57
2017-11-13T17:05:58.555Z,4.83
2017-11-13T17:08:26.129Z,8.63
2017-11-13T17:10:54.405Z,10.37
2017-11-13T17:13:21.921Z,5.00
2017-11-13T17:15:49.496Z,6.37
2017-11-13T17:18:16.997Z,3.83
2017-11-13T17:20:44.714Z,5.47
2017-11-13T17:23:12.220Z,10.87
2017-11-13T17:25:39.713Z,6.60
2017-11-13T17:28:07.222Z,4.07
2017-11-13T17:30:35.514Z,14.83
2017-11-13T17:33:03.221Z,24.70
2017-11-13T17:35:30.724Z,14.07
2017-11-13T17:37:58.546Z,5.33
2017-11-13T17:40:26.060Z,4.67
2017-11-13T17:42:53.577Z,7.00
2017-11-13T17:45:21.094Z,21.80
2017-11-13T17:47:48.881Z,11.23
2017-11-13T17:50:16.641Z,13.07
2017-11-13T17:52:44.153Z,6.07
2017-11-13T17:55:11.662Z,8.47
2017-11-13T17:57:39.167Z,13.97
2017-11-13T18:00:07.698Z,11.10
2017-11-13T18:02:35.225Z,16.20
2017-11-13T18:05:02.737Z,6.80
2017-11-13T18:07:30.224Z,6.57
2017-11-13T18:09:57.748Z,6.30
2017-11-13T18:12:25.277Z,7.80
2017-11-13T18:14:52.826Z,4.43
2017-11-13T18:17:20.316Z,10.87
2017-11-13T18:19:47.821Z,9.30
2017-11-13T18:22:15.342Z,5.10
2017-11-13T18:24:43.618Z,8.87
2017-11-13T18:27:11.235Z,7.90
2017-11-13T18:29:39.021Z,5.90
2017-11-13T18:32:06.525Z,9.90
2017-11-13T18:34:34.042Z,5.90
2017-11-13T18:37:01.550Z,11.40
2017-11-13T18:39:29.825Z,10.57
2017-11-13T18:41:57.359Z,13.30
2017-11-13T18:44:24.982Z,12.80
2017-11-13T18:46:52.546Z,9.53
2017-11-13T18:49:20.919Z,16.10
2017-11-13T18:51:48.568Z,9.60
2017-11-13T18:54:16.056Z,17.50
2017-11-13T18:56:43.555Z,9.40
2017-11-13T18:59:11.064Z,14.97
2017-11-13T19:01:38.627Z,24.27
2017-11-13T19:04:06.185Z,8.53
2017-11-13T19:06:33.687Z,12.80
2017-11-13T19:09:01.194Z,9.90
2017-11-13T19:11:28.854Z,8.77
2017-11-13T19:13:56.349Z,9.03
2017-11-13T19:16:23.888Z,22.17
2017-11-13T19:18:51.404Z,17.00
2017-11-13T19:21:18.898Z,15.90
2017-11-13T19:23:46.443Z,13.83
2017-11-13T19:26:13.939Z,10.07
2017-11-13T19:28:41.640Z,17.90
2017-11-13T19:31:09.140Z,9.70
2017-11-13T19:33:36.767Z,8.33
2017-11-13T19:36:04.518Z,19.53
2017-11-13T19:38:32.027Z,26.43
2017-11-13T19:40:59.533Z,19.23
2017-11-13T19:43:27.046Z,7.97
2017-11-13T19:45:54.544Z,7.13
2017-11-13T19:48:22.061Z,13.10
2017-11-13T19:50:49.572Z,8.93
2017-11-13T19:53:17.148Z,17.03
2017-11-13T19:55:44.920Z,20.40
2017-11-13T19:58:12.443Z,15.10
2017-11-13T20:00:39.943Z,8.60
2017-11-13T20:03:07.593Z,18.67
2017-11-13T20:05:35.141Z,14.43
2017-11-13T20:08:02.805Z,15.87
2017-11-13T20:10:30.319Z,12.10
2017-11-13T20:12:57.819Z,16.43
2017-11-13T20:15:25.319Z,19.70
2017-11-13T20:17:53.586Z,13.17
2017-11-13T20:20:21.098Z,13.47
2017-11-13T20:22:48.608Z,14.13
2017-11-13T20:25:16.223Z,8.07
2017-11-13T20:27:43.834Z,8.57
2017-11-13T20:30:12.101Z,11.77
2017-11-13T20:32:41.161Z,16.20
2017-11-13T20:35:08.697Z,11.03
2017-11-13T20:37:36.184Z,8.67
2017-11-13T20:40:03.693Z,11.87
2017-11-13T20:42:31.201Z,10.80
2017-11-13T20:44:58.706Z,12.83
2017-11-13T20:47:26.281Z,14.63
2017-11-13T20:49:53.789Z,13.10
2017-11-13T20:52:22.236Z,13.73
2017-11-13T20:54:49.733Z,19.03
2017-11-13T20:57:17.463Z,11.60
2017-11-13T20:59:44.958Z,20.80
2017-11-13T21:02:12.466Z,13.53
2017-11-13T21:04:40.188Z,13.73
2017-11-13T21:07:07.684Z,15.03
2017-11-13T21:09:35.201Z,16.10
2017-11-13T21:12:03.488Z,17.30
2017-11-13T21:14:31.189Z,9.60
2017-11-13T21:16:58.688Z,10.67
2017-11-13T21:19:26.190Z,11.33
2017-11-13T21:21:53.708Z,13.80
2017-11-13T21:24:21.991Z,10.93
2017-11-13T21:26:50.909Z,14.10
2017-11-13T21:29:18.407Z,15.60
2017-11-13T21:31:46.114Z,15.43
2017-11-13T21:34:13.917Z,12.07
2017-11-13T21:36:41.676Z,12.50
2017-11-13T21:39:09.885Z,14.83
2017-11-13T21:41:38.149Z,12.33
2017-11-13T21:44:05.660Z,15.17
2017-11-13T21:46:33.268Z,13.57
2017-11-13T21:49:01.637Z,15.73
2017-11-13T21:51:29.145Z,12.20
2017-11-13T21:53:56.648Z,16.40
2017-11-13T21:56:24.175Z,11.00
2017-11-13T21:58:52.365Z,10.60
2017-11-13T22:01:19.924Z,18.10
2017-11-13T22:03:47.443Z,13.27
2017-11-13T22:06:14.949Z,16.43
2017-11-13T22:08:43.243Z,14.50
2017-11-13T22:11:10.731Z,11.50
2017-11-13T22:13:38.437Z,12.13
2017-11-13T22:16:06.202Z,15.70
2017-11-13T22:18:33.698Z,14.97
2017-11-13T22:21:01.206Z,11.07
2017-11-13T22:23:28.700Z,9.30
2017-11-13T22:25:56.209Z,12.20
2017-11-13T22:28:23.697Z,9.87
2017-11-13T22:30:51.244Z,21.73
2017-11-13T22:33:19.013Z,25.77
2017-11-13T22:35:46.773Z,12.37
2017-11-13T22:38:14.269Z,12.20
2017-11-13T22:40:41.776Z,16.77
2017-11-13T22:43:09.278Z,23.60
2017-11-13T22:45:36.785Z,28.63
2017-11-13T22:48:04.330Z,15.97
2017-11-13T22:50:31.829Z,15.73
2017-11-13T22:52:59.345Z,15.47
2017-11-13T22:55:26.986Z,16.90
2017-11-13T22:57:54.505Z,12.57
2017-11-13T23:00:22.258Z,13.63
2017-11-13T23:02:49.757Z,12.07
2017-11-13T23:05:17.267Z,24.00
2017-11-13T23:07:44.771Z,17.20
2017-11-13T23:10:13.035Z,15.70
2017-11-13T23:12:40.557Z,14.20
2017-11-13T23:15:08.166Z,18.40
2017-11-13T23:17:35.680Z,20.53
2017-11-13T23:20:03.437Z,15.33
2017-11-13T23:22:30.942Z,13.90
2017-11-13T23:24:58.744Z,11.80
2017-11-13T23:27:26.397Z,14.90
2017-11-13T23:29:55.081Z,12.93
2017-11-13T23:32:22.901Z,12.17
2017-11-13T23:34:51.205Z,9.10
2017-11-13T23:37:18.808Z,9.33
2017-11-13T23:39:46.473Z,18.33
2017-11-13T23:42:13.968Z,6.73
2017-11-13T23:44:41.474Z,10.83
2017-11-13T23:47:08.970Z,9.47
2017-11-13T23:49:36.612Z,10.83
2017-11-13T23:52:04.376Z,9.83
2017-11-13T23:54:37.969Z,9.53
2017-11-13T23:57:06.349Z,13.23
2017-11-13T23:59:33.849Z,8.13
